sensor_id;sensor_type;location;lat;lon;timestamp;P1;durP1;ratioP1;P2;durP2;ratioP2
58306;SDS011;44116;50.884;4.768;2023-04-24T00:03:18;19.8;;;10.2;;
58306;SDS011;44116;50.884;4.768;2023-04-24T00:05:17;17.4;;;10.5;;
58306;SDS011;44116;50.884;4.768;2023-04-24T00:07:17;22.1;;;11.1;;
58306;SDS011;44116;50.884;4.768;2023-04-24T00:09:16;17.8;;;10.4;;
58306;SDS011;44116;50.884;4.768;2023-04-24T00:11:16;19.6;;;10.2;;
58306;SDS011;44116;50.884;4.768;2023-04-24T00:13:16;20.8;;;10.1;;
58306;SDS011;44116;50.884;4.768;2023-04-24T00:15:16;17.4;;;10.8;;
58306;SDS011;44116;50.884;4.768;2023-04-24T00:17:15;22.7;;;11.0;;
58306;SDS011;44116;50.884;4.768;2023-04-24T00:19:15;19.9;;;10.6;;
58306;SDS011;44116;50.884;4.768;2023-04-24T00:21:15;17.8;;;10.5;;
58306;SDS011;44116;50.884;4.768;2023-04-24T00:23:14;20.1;;;11.2;;
58306;SDS011;44116;50.884;4.768;2023-04-24T00:25:14;18.2;;;10.9;;
58306;SDS011;44116;50.884;4.768;2023-04-24T00:27:14;18.2;;;10.7;;
58306;SDS011;44116;50.884;4.768;2023-04-24T00:29:13;19.9;;;11.3;;
58306;SDS011;44116;50.884;4.768;2023-04-24T00:31:13;21.0;;;10.8;;
58306;SDS011;44116;50.884;4.768;2023-04-24T00:33:13;20.2;;;11.5;;
58306;SDS011;44116;50.884;4.768;2023-04-24T00:35:12;19.4;;;11.0;;
58306;SDS011;44116;50.884;4.768;2023-04-24T00:37:12;18.2;;;11.1;;
58306;SDS011;44116;50.884;4.768;2023-04-24T00:39:12;21.0;;;10.7;;
58306;SDS011;44116;50.884;4.768;2023-04-24T00:41:11;18.7;;;10.1;;
58306;SDS011;44116;50.884;4.768;2023-04-24T00:43:11;23.5;;;11.7;;
58306;SDS011;44116;50.884;4.768;2023-04-24T00:45:11;21.8;;;11.0;;
58306;SDS011;44116;50.884;4.768;2023-04-24T00:47:10;18.0;;;10.4;;
58306;SDS011;44116;50.884;4.768;2023-04-24T00:49:10;19.7;;;10.9;;
58306;SDS011;44116;50.884;4.768;2023-04-24T00:51:10;19.2;;;10.2;;
58306;SDS011;44116;50.884;4.768;2023-04-24T00:53:10;21.9;;;11.1;;
58306;SDS011;44116;50.884;4.768;2023-04-24T00:55:09;20.0;;;11.2;;
58306;SDS011;44116;50.884;4.768;2023-04-24T00:57:09;20.9;;;11.0;;
58306;SDS011;44116;50.884;4.768;2023-04-24T00:59:09;19.9;;;10.9;;
58306;SDS011;44116;50.884;4.768;2023-04-24T01:01:09;20.3;;;11.8;;
58306;SDS011;44116;50.884;4.768;2023-04-24T01:07:08;19.5;;;11.5;;
58306;SDS011;44116;50.884;4.768;2023-04-24T01:09:07;18.8;;;10.7;;
58306;SDS011;44116;50.884;4.768;2023-04-24T01:11:07;21.4;;;11.4;;
58306;SDS011;44116;50.884;4.768;2023-04-24T01:13:07;21.1;;;11.1;;
58306;SDS011;44116;50.884;4.768;2023-04-24T01:15:07;18.4;;;11.4;;
58306;SDS011;44116;50.884;4.768;2023-04-24T01:17:06;21.8;;;12.1;;
58306;SDS011;44116;50.884;4.768;2023-04-24T01:19:06;19.3;;;11.4;;
58306;SDS011;44116;50.884;4.768;2023-04-24T01:21:05;21.0;;;11.6;;
58306;SDS011;44116;50.884;4.768;2023-04-24T01:23:05;17.2;;;10.9;;
58306;SDS011;44116;50.884;4.768;2023-04-24T01:25:05;20.8;;;11.8;;
58306;SDS011;44116;50.884;4.768;2023-04-24T01:27:04;20.2;;;11.1;;
58306;SDS011;44116;50.884;4.768;2023-04-24T01:31:04;17.7;;;11.0;;
58306;SDS011;44116;50.884;4.768;2023-04-24T01:35:04;19.0;;;10.7;;
58306;SDS011;44116;50.884;4.768;2023-04-24T01:37:02;19.1;;;11.0;;
58306;SDS011;44116;50.884;4.768;2023-04-24T01:39:02;17.5;;;10.1;;
58306;SDS011;44116;50.884;4.768;2023-04-24T01:41:02;17.7;;;10.2;;
58306;SDS011;44116;50.884;4.768;2023-04-24T01:43:01;16.9;;;10.1;;
58306;SDS011;44116;50.884;4.768;2023-04-24T01:45:02;17.0;;;9.7;;
58306;SDS011;44116;50.884;4.768;2023-04-24T01:47:01;14.0;;;9.4;;
58306;SDS011;44116;50.884;4.768;2023-04-24T01:49:01;16.5;;;9.6;;
58306;SDS011;44116;50.884;4.768;2023-04-24T01:51:00;15.8;;;9.4;;
58306;SDS011;44116;50.884;4.768;2023-04-24T01:55:00;15.7;;;9.1;;
58306;SDS011;44116;50.884;4.768;2023-04-24T01:58:59;16.5;;;9.3;;
58306;SDS011;44116;50.884;4.768;2023-04-24T02:00:59;16.2;;;9.2;;
58306;SDS011;44116;50.884;4.768;2023-04-24T02:02:58;16.5;;;9.8;;
58306;SDS011;44116;50.884;4.768;2023-04-24T02:04:58;15.8;;;9.2;;
58306;SDS011;44116;50.884;4.768;2023-04-24T02:06:57;13.6;;;9.0;;
58306;SDS011;44116;50.884;4.768;2023-04-24T02:08:57;14.6;;;8.8;;
58306;SDS011;44116;50.884;4.768;2023-04-24T02:10:56;13.8;;;8.5;;
58306;SDS011;44116;50.884;4.768;2023-04-24T02:12:56;14.5;;;8.1;;
58306;SDS011;44116;50.884;4.768;2023-04-24T02:14:56;13.9;;;8.4;;
58306;SDS011;44116;50.884;4.768;2023-04-24T02:18:55;13.8;;;8.3;;
58306;SDS011;44116;50.884;4.768;2023-04-24T02:20:55;14.0;;;8.6;;
58306;SDS011;44116;50.884;4.768;2023-04-24T02:22:54;13.2;;;8.7;;
58306;SDS011;44116;50.884;4.768;2023-04-24T02:24:55;16.4;;;9.2;;
58306;SDS011;44116;50.884;4.768;2023-04-24T02:26:54;14.8;;;8.9;;
58306;SDS011;44116;50.884;4.768;2023-04-24T02:28:53;14.1;;;9.2;;
58306;SDS011;44116;50.884;4.768;2023-04-24T02:32:53;16.0;;;10.0;;
58306;SDS011;44116;50.884;4.768;2023-04-24T02:34:52;16.9;;;9.9;;
58306;SDS011;44116;50.884;4.768;2023-04-24T02:36:52;14.5;;;9.8;;
58306;SDS011;44116;50.884;4.768;2023-04-24T02:40:51;15.5;;;10.4;;
58306;SDS011;44116;50.884;4.768;2023-04-24T02:42:51;15.6;;;9.8;;
58306;SDS011;44116;50.884;4.768;2023-04-24T02:44:51;15.4;;;10.1;;
58306;SDS011;44116;50.884;4.768;2023-04-24T02:46:50;17.1;;;10.2;;
58306;SDS011;44116;50.884;4.768;2023-04-24T02:50:50;16.8;;;10.3;;
58306;SDS011;44116;50.884;4.768;2023-04-24T02:52:49;17.0;;;10.6;;
58306;SDS011;44116;50.884;4.768;2023-04-24T02:54:49;18.2;;;10.4;;
58306;SDS011;44116;50.884;4.768;2023-04-24T02:56:49;14.5;;;10.3;;
58306;SDS011;44116;50.884;4.768;2023-04-24T02:58:48;15.9;;;9.8;;
58306;SDS011;44116;50.884;4.768;2023-04-24T03:00:48;16.6;;;10.4;;
58306;SDS011;44116;50.884;4.768;2023-04-24T03:02:48;16.6;;;10.7;;
58306;SDS011;44116;50.884;4.768;2023-04-24T03:04:47;14.3;;;9.7;;
58306;SDS011;44116;50.884;4.768;2023-04-24T03:06:47;15.5;;;10.2;;
58306;SDS011;44116;50.884;4.768;2023-04-24T03:08:47;16.1;;;10.1;;
58306;SDS011;44116;50.884;4.768;2023-04-24T03:12:46;15.2;;;9.5;;
58306;SDS011;44116;50.884;4.768;2023-04-24T03:14:45;15.3;;;9.6;;
58306;SDS011;44116;50.884;4.768;2023-04-24T03:16:45;18.5;;;10.1;;
58306;SDS011;44116;50.884;4.768;2023-04-24T03:18:45;14.7;;;9.2;;
58306;SDS011;44116;50.884;4.768;2023-04-24T03:20:45;14.4;;;9.6;;
58306;SDS011;44116;50.884;4.768;2023-04-24T03:22:44;14.3;;;8.8;;
58306;SDS011;44116;50.884;4.768;2023-04-24T03:24:44;14.0;;;8.7;;
58306;SDS011;44116;50.884;4.768;2023-04-24T03:26:43;14.2;;;9.0;;
58306;SDS011;44116;50.884;4.768;2023-04-24T03:28:43;13.3;;;9.1;;
58306;SDS011;44116;50.884;4.768;2023-04-24T03:30:43;14.4;;;9.4;;
58306;SDS011;44116;50.884;4.768;2023-04-24T03:32:42;12.4;;;8.1;;
58306;SDS011;44116;50.884;4.768;2023-04-24T03:34:42;13.9;;;7.9;;
58306;SDS011;44116;50.884;4.768;2023-04-24T03:36:42;12.2;;;7.8;;
58306;SDS011;44116;50.884;4.768;2023-04-24T03:38:41;12.5;;;8.0;;
58306;SDS011;44116;50.884;4.768;2023-04-24T03:40:41;12.0;;;8.1;;
58306;SDS011;44116;50.884;4.768;2023-04-24T03:42:41;11.1;;;7.7;;
58306;SDS011;44116;50.884;4.768;2023-04-24T03:44:40;11.5;;;8.0;;
58306;SDS011;44116;50.884;4.768;2023-04-24T03:46:40;11.1;;;7.9;;
58306;SDS011;44116;50.884;4.768;2023-04-24T03:48:40;10.6;;;8.2;;
58306;SDS011;44116;50.884;4.768;2023-04-24T03:50:40;13.8;;;8.7;;
58306;SDS011;44116;50.884;4.768;2023-04-24T03:52:39;12.2;;;8.0;;
58306;SDS011;44116;50.884;4.768;2023-04-24T03:54:39;13.2;;;7.7;;
58306;SDS011;44116;50.884;4.768;2023-04-24T03:58:38;11.4;;;7.3;;
58306;SDS011;44116;50.884;4.768;2023-04-24T04:00:39;11.3;;;7.8;;
58306;SDS011;44116;50.884;4.768;2023-04-24T04:02:37;12.8;;;7.6;;
58306;SDS011;44116;50.884;4.768;2023-04-24T04:04:37;11.9;;;7.4;;
58306;SDS011;44116;50.884;4.768;2023-04-24T04:06:37;11.7;;;7.8;;
58306;SDS011;44116;50.884;4.768;2023-04-24T04:08:36;10.1;;;7.2;;
58306;SDS011;44116;50.884;4.768;2023-04-24T04:10:36;10.3;;;6.5;;
58306;SDS011;44116;50.884;4.768;2023-04-24T04:14:35;9.7;;;6.0;;
58306;SDS011;44116;50.884;4.768;2023-04-24T04:16:35;9.6;;;6.5;;
58306;SDS011;44116;50.884;4.768;2023-04-24T04:18:34;8.2;;;5.3;;
58306;SDS011;44116;50.884;4.768;2023-04-24T04:20:34;9.0;;;5.9;;
58306;SDS011;44116;50.884;4.768;2023-04-24T04:22:34;7.6;;;5.5;;
58306;SDS011;44116;50.884;4.768;2023-04-24T04:24:33;8.0;;;5.3;;
58306;SDS011;44116;50.884;4.768;2023-04-24T04:26:33;8.7;;;5.7;;
58306;SDS011;44116;50.884;4.768;2023-04-24T04:28:33;8.3;;;5.6;;
58306;SDS011;44116;50.884;4.768;2023-04-24T04:30:33;7.5;;;5.2;;
58306;SDS011;44116;50.884;4.768;2023-04-24T04:32:32;7.1;;;4.7;;
58306;SDS011;44116;50.884;4.768;2023-04-24T04:34:32;6.9;;;4.8;;
58306;SDS011;44116;50.884;4.768;2023-04-24T04:36:31;7.5;;;4.0;;
58306;SDS011;44116;50.884;4.768;2023-04-24T04:38:31;8.4;;;4.5;;
58306;SDS011;44116;50.884;4.768;2023-04-24T04:40:31;7.3;;;4.8;;
58306;SDS011;44116;50.884;4.768;2023-04-24T04:42:31;6.2;;;4.2;;
58306;SDS011;44116;50.884;4.768;2023-04-24T04:46:30;7.0;;;4.0;;
58306;SDS011;44116;50.884;4.768;2023-04-24T04:48:29;7.8;;;4.3;;
58306;SDS011;44116;50.884;4.768;2023-04-24T04:50:29;5.8;;;3.9;;
58306;SDS011;44116;50.884;4.768;2023-04-24T04:52:29;7.3;;;4.0;;
58306;SDS011;44116;50.884;4.768;2023-04-24T04:54:29;6.8;;;4.3;;
58306;SDS011;44116;50.884;4.768;2023-04-24T04:56:28;7.2;;;3.7;;
58306;SDS011;44116;50.884;4.768;2023-04-24T05:00:27;6.9;;;4.0;;
58306;SDS011;44116;50.884;4.768;2023-04-24T05:02:27;6.7;;;3.5;;
58306;SDS011;44116;50.884;4.768;2023-04-24T05:04:27;6.5;;;4.0;;
58306;SDS011;44116;50.884;4.768;2023-04-24T05:06:26;7.0;;;4.7;;
58306;SDS011;44116;50.884;4.768;2023-04-24T05:08:26;7.2;;;4.3;;
58306;SDS011;44116;50.884;4.768;2023-04-24T05:10:26;6.3;;;4.5;;
58306;SDS011;44116;50.884;4.768;2023-04-24T05:12:25;7.6;;;5.3;;
58306;SDS011;44116;50.884;4.768;2023-04-24T05:14:25;8.2;;;5.8;;
58306;SDS011;44116;50.884;4.768;2023-04-24T05:16:25;7.9;;;5.6;;
58306;SDS011;44116;50.884;4.768;2023-04-24T05:18:24;9.6;;;6.5;;
58306;SDS011;44116;50.884;4.768;2023-04-24T05:20:24;11.7;;;7.0;;
58306;SDS011;44116;50.884;4.768;2023-04-24T05:24:23;11.3;;;7.2;;
58306;SDS011;44116;50.884;4.768;2023-04-24T05:26:23;12.1;;;7.5;;
58306;SDS011;44116;50.884;4.768;2023-04-24T05:28:23;12.0;;;8.0;;
58306;SDS011;44116;50.884;4.768;2023-04-24T05:30:22;13.0;;;7.9;;
58306;SDS011;44116;50.884;4.768;2023-04-24T05:32:22;11.8;;;7.6;;
58306;SDS011;44116;50.884;4.768;2023-04-24T05:34:22;11.5;;;7.1;;
58306;SDS011;44116;50.884;4.768;2023-04-24T05:36:21;11.4;;;7.2;;
58306;SDS011;44116;50.884;4.768;2023-04-24T05:38:21;11.8;;;7.5;;
58306;SDS011;44116;50.884;4.768;2023-04-24T05:40:21;10.6;;;6.7;;
58306;SDS011;44116;50.884;4.768;2023-04-24T05:42:20;12.0;;;7.5;;
58306;SDS011;44116;50.884;4.768;2023-04-24T05:44:20;12.9;;;6.8;;
58306;SDS011;44116;50.884;4.768;2023-04-24T05:46:19;12.9;;;7.2;;
58306;SDS011;44116;50.884;4.768;2023-04-24T05:48:19;11.6;;;7.0;;
58306;SDS011;44116;50.884;4.768;2023-04-24T05:50:19;13.0;;;7.5;;
58306;SDS011;44116;50.884;4.768;2023-04-24T05:52:18;13.7;;;7.9;;
58306;SDS011;44116;50.884;4.768;2023-04-24T05:56:18;13.1;;;7.7;;
58306;SDS011;44116;50.884;4.768;2023-04-24T05:58:17;12.4;;;8.0;;
58306;SDS011;44116;50.884;4.768;2023-04-24T06:00:17;15.5;;;7.9;;
58306;SDS011;44116;50.884;4.768;2023-04-24T06:02:17;12.8;;;7.8;;
58306;SDS011;44116;50.884;4.768;2023-04-24T06:08:15;12.6;;;7.7;;
58306;SDS011;44116;50.884;4.768;2023-04-24T06:10:15;14.5;;;8.2;;
58306;SDS011;44116;50.884;4.768;2023-04-24T06:12:15;12.3;;;8.0;;
58306;SDS011;44116;50.884;4.768;2023-04-24T06:14:14;15.8;;;8.7;;
58306;SDS011;44116;50.884;4.768;2023-04-24T06:16:14;14.0;;;7.8;;
58306;SDS011;44116;50.884;4.768;2023-04-24T06:18:14;11.8;;;7.3;;
58306;SDS011;44116;50.884;4.768;2023-04-24T06:20:13;13.5;;;8.1;;
58306;SDS011;44116;50.884;4.768;2023-04-24T06:22:13;15.3;;;8.8;;
58306;SDS011;44116;50.884;4.768;2023-04-24T06:24:14;14.4;;;8.5;;
58306;SDS011;44116;50.884;4.768;2023-04-24T06:26:12;14.7;;;8.7;;
58306;SDS011;44116;50.884;4.768;2023-04-24T06:28:12;14.0;;;8.6;;
58306;SDS011;44116;50.884;4.768;2023-04-24T06:30:12;15.3;;;9.0;;
58306;SDS011;44116;50.884;4.768;2023-04-24T06:32:11;14.8;;;8.7;;
58306;SDS011;44116;50.884;4.768;2023-04-24T06:34:11;14.4;;;8.8;;
58306;SDS011;44116;50.884;4.768;2023-04-24T06:36:11;17.2;;;10.0;;
58306;SDS011;44116;50.884;4.768;2023-04-24T06:38:10;17.2;;;9.9;;
58306;SDS011;44116;50.884;4.768;2023-04-24T06:40:13;15.8;;;10.0;;
58306;SDS011;44116;50.884;4.768;2023-04-24T06:42:09;19.8;;;10.1;;
58306;SDS011;44116;50.884;4.768;2023-04-24T06:44:09;17.0;;;10.0;;
58306;SDS011;44116;50.884;4.768;2023-04-24T06:48:08;15.8;;;9.9;;
58306;SDS011;44116;50.884;4.768;2023-04-24T06:50:08;22.1;;;11.3;;
58306;SDS011;44116;50.884;4.768;2023-04-24T06:52:08;17.0;;;10.6;;
58306;SDS011;44116;50.884;4.768;2023-04-24T06:54:07;19.8;;;10.9;;
58306;SDS011;44116;50.884;4.768;2023-04-24T06:56:07;19.1;;;11.2;;
58306;SDS011;44116;50.884;4.768;2023-04-24T06:58:07;15.6;;;9.8;;
58306;SDS011;44116;50.884;4.768;2023-04-24T07:00:07;19.3;;;10.9;;
58306;SDS011;44116;50.884;4.768;2023-04-24T07:02:06;18.0;;;10.5;;
58306;SDS011;44116;50.884;4.768;2023-04-24T07:04:05;18.9;;;10.6;;
58306;SDS011;44116;50.884;4.768;2023-04-24T07:06:05;21.6;;;11.2;;
58306;SDS011;44116;50.884;4.768;2023-04-24T07:08:05;20.8;;;11.6;;
58306;SDS011;44116;50.884;4.768;2023-04-24T07:10:05;20.3;;;11.2;;
58306;SDS011;44116;50.884;4.768;2023-04-24T07:12:04;17.9;;;10.4;;
58306;SDS011;44116;50.884;4.768;2023-04-24T07:14:04;22.6;;;11.7;;
58306;SDS011;44116;50.884;4.768;2023-04-24T07:16:04;22.8;;;11.8;;
58306;SDS011;44116;50.884;4.768;2023-04-24T07:18:03;22.0;;;11.6;;
58306;SDS011;44116;50.884;4.768;2023-04-24T07:20:03;20.1;;;11.5;;
58306;SDS011;44116;50.884;4.768;2023-04-24T07:22:02;22.3;;;12.3;;
58306;SDS011;44116;50.884;4.768;2023-04-24T07:24:02;21.3;;;12.0;;
58306;SDS011;44116;50.884;4.768;2023-04-24T07:26:02;19.6;;;12.2;;
58306;SDS011;44116;50.884;4.768;2023-04-24T07:28:01;22.0;;;11.0;;
58306;SDS011;44116;50.884;4.768;2023-04-24T07:30:01;23.0;;;11.5;;
58306;SDS011;44116;50.884;4.768;2023-04-24T07:32:01;19.9;;;11.2;;
58306;SDS011;44116;50.884;4.768;2023-04-24T07:34:00;24.1;;;12.0;;
58306;SDS011;44116;50.884;4.768;2023-04-24T07:36:00;20.2;;;11.7;;
58306;SDS011;44116;50.884;4.768;2023-04-24T07:37:59;19.9;;;11.1;;
58306;SDS011;44116;50.884;4.768;2023-04-24T07:39:59;24.1;;;11.5;;
58306;SDS011;44116;50.884;4.768;2023-04-24T07:43:58;19.5;;;10.9;;
58306;SDS011;44116;50.884;4.768;2023-04-24T07:45:58;21.6;;;11.8;;
58306;SDS011;44116;50.884;4.768;2023-04-24T07:47:57;20.7;;;12.3;;
58306;SDS011;44116;50.884;4.768;2023-04-24T07:49:57;23.8;;;12.9;;
58306;SDS011;44116;50.884;4.768;2023-04-24T07:51:57;20.0;;;11.9;;
58306;SDS011;44116;50.884;4.768;2023-04-24T07:53:57;21.9;;;11.8;;
58306;SDS011;44116;50.884;4.768;2023-04-24T07:55:56;20.5;;;9.8;;
58306;SDS011;44116;50.884;4.768;2023-04-24T07:57:56;19.1;;;10.4;;
58306;SDS011;44116;50.884;4.768;2023-04-24T07:59:55;21.2;;;11.5;;
58306;SDS011;44116;50.884;4.768;2023-04-24T08:01:55;21.0;;;11.8;;
58306;SDS011;44116;50.884;4.768;2023-04-24T08:03:55;20.1;;;12.2;;
58306;SDS011;44116;50.884;4.768;2023-04-24T08:07:54;26.6;;;12.3;;
58306;SDS011;44116;50.884;4.768;2023-04-24T08:09:54;18.3;;;10.9;;
58306;SDS011;44116;50.884;4.768;2023-04-24T08:11:53;20.5;;;11.7;;
58306;SDS011;44116;50.884;4.768;2023-04-24T08:13:53;21.2;;;11.0;;
58306;SDS011;44116;50.884;4.768;2023-04-24T08:15:53;22.7;;;10.3;;
58306;SDS011;44116;50.884;4.768;2023-04-24T08:17:52;21.0;;;11.2;;
58306;SDS011;44116;50.884;4.768;2023-04-24T08:19:52;21.0;;;11.1;;
58306;SDS011;44116;50.884;4.768;2023-04-24T08:23:51;20.4;;;10.9;;
58306;SDS011;44116;50.884;4.768;2023-04-24T08:25:51;19.6;;;10.5;;
58306;SDS011;44116;50.884;4.768;2023-04-24T08:27:51;19.1;;;10.3;;
58306;SDS011;44116;50.884;4.768;2023-04-24T08:29:52;21.7;;;10.6;;
58306;SDS011;44116;50.884;4.768;2023-04-24T08:31:50;19.1;;;9.7;;
58306;SDS011;44116;50.884;4.768;2023-04-24T08:33:50;16.3;;;8.4;;
58306;SDS011;44116;50.884;4.768;2023-04-24T08:35:49;15.6;;;7.3;;
58306;SDS011;44116;50.884;4.768;2023-04-24T08:37:49;17.8;;;7.7;;
58306;SDS011;44116;50.884;4.768;2023-04-24T08:39:49;15.6;;;7.3;;
58306;SDS011;44116;50.884;4.768;2023-04-24T08:41:49;13.5;;;6.7;;
58306;SDS011;44116;50.884;4.768;2023-04-24T08:43:51;13.8;;;6.6;;
58306;SDS011;44116;50.884;4.768;2023-04-24T08:45:47;15.4;;;6.7;;
58306;SDS011;44116;50.884;4.768;2023-04-24T08:47:47;14.8;;;6.8;;
58306;SDS011;44116;50.884;4.768;2023-04-24T08:49:48;13.8;;;7.2;;
58306;SDS011;44116;50.884;4.768;2023-04-24T08:51:48;17.4;;;8.8;;
58306;SDS011;44116;50.884;4.768;2023-04-24T08:53:46;18.3;;;8.0;;
58306;SDS011;44116;50.884;4.768;2023-04-24T08:55:47;15.5;;;7.7;;
58306;SDS011;44116;50.884;4.768;2023-04-24T08:57:50;15.3;;;8.1;;
58306;SDS011;44116;50.884;4.768;2023-04-24T08:59:46;20.5;;;8.5;;
58306;SDS011;44116;50.884;4.768;2023-04-24T09:01:46;20.2;;;9.1;;
58306;SDS011;44116;50.884;4.768;2023-04-24T09:03:46;20.5;;;8.9;;
58306;SDS011;44116;50.884;4.768;2023-04-24T09:05:46;17.7;;;8.7;;
58306;SDS011;44116;50.884;4.768;2023-04-24T09:07:45;20.1;;;8.9;;
58306;SDS011;44116;50.884;4.768;2023-04-24T09:09:44;16.9;;;8.0;;
58306;SDS011;44116;50.884;4.768;2023-04-24T09:11:44;17.9;;;7.9;;
58306;SDS011;44116;50.884;4.768;2023-04-24T09:15:43;17.1;;;6.1;;
58306;SDS011;44116;50.884;4.768;2023-04-24T09:17:43;18.0;;;6.6;;
58306;SDS011;44116;50.884;4.768;2023-04-24T09:19:42;19.5;;;7.3;;
58306;SDS011;44116;50.884;4.768;2023-04-24T09:21:45;18.5;;;6.9;;
58306;SDS011;44116;50.884;4.768;2023-04-24T09:23:41;16.2;;;6.7;;
58306;SDS011;44116;50.884;4.768;2023-04-24T09:25:41;15.2;;;7.0;;
58306;SDS011;44116;50.884;4.768;2023-04-24T09:27:42;15.9;;;7.1;;
58306;SDS011;44116;50.884;4.768;2023-04-24T09:29:53;16.9;;;6.6;;
58306;SDS011;44116;50.884;4.768;2023-04-24T09:31:40;15.9;;;6.8;;
58306;SDS011;44116;50.884;4.768;2023-04-24T09:33:40;18.0;;;7.0;;
58306;SDS011;44116;50.884;4.768;2023-04-24T09:35:41;18.8;;;7.4;;
58306;SDS011;44116;50.884;4.768;2023-04-24T09:37:40;15.8;;;6.5;;
58306;SDS011;44116;50.884;4.768;2023-04-24T09:39:39;16.7;;;7.0;;
58306;SDS011;44116;50.884;4.768;2023-04-24T09:41:44;16.5;;;6.6;;
58306;SDS011;44116;50.884;4.768;2023-04-24T09:45:39;14.2;;;6.5;;
58306;SDS011;44116;50.884;4.768;2023-04-24T09:47:38;14.0;;;5.9;;
58306;SDS011;44116;50.884;4.768;2023-04-24T09:49:37;13.5;;;6.0;;
58306;SDS011;44116;50.884;4.768;2023-04-24T09:51:37;12.5;;;6.2;;
58306;SDS011;44116;50.884;4.768;2023-04-24T09:53:36;15.6;;;6.5;;
58306;SDS011;44116;50.884;4.768;2023-04-24T09:57:47;13.8;;;5.7;;
58306;SDS011;44116;50.884;4.768;2023-04-24T09:59:41;16.4;;;6.2;;
58306;SDS011;44116;50.884;4.768;2023-04-24T10:01:35;13.8;;;5.9;;
58306;SDS011;44116;50.884;4.768;2023-04-24T10:03:36;13.3;;;5.4;;
58306;SDS011;44116;50.884;4.768;2023-04-24T10:05:36;12.6;;;5.2;;
58306;SDS011;44116;50.884;4.768;2023-04-24T10:07:34;11.7;;;5.1;;
58306;SDS011;44116;50.884;4.768;2023-04-24T10:09:34;12.1;;;5.2;;
58306;SDS011;44116;50.884;4.768;2023-04-24T10:11:34;11.1;;;4.4;;
58306;SDS011;44116;50.884;4.768;2023-04-24T10:13:34;11.5;;;4.5;;
58306;SDS011;44116;50.884;4.768;2023-04-24T10:15:33;11.0;;;4.2;;
58306;SDS011;44116;50.884;4.768;2023-04-24T10:17:34;8.7;;;4.5;;
58306;SDS011;44116;50.884;4.768;2023-04-24T10:19:34;10.5;;;4.2;;
58306;SDS011;44116;50.884;4.768;2023-04-24T10:21:32;10.2;;;4.3;;
58306;SDS011;44116;50.884;4.768;2023-04-24T10:23:32;9.7;;;4.1;;
58306;SDS011;44116;50.884;4.768;2023-04-24T10:25:33;9.5;;;4.3;;
58306;SDS011;44116;50.884;4.768;2023-04-24T10:27:32;11.0;;;4.7;;
58306;SDS011;44116;50.884;4.768;2023-04-24T10:29:31;13.6;;;4.8;;
58306;SDS011;44116;50.884;4.768;2023-04-24T10:31:31;11.8;;;5.2;;
58306;SDS011;44116;50.884;4.768;2023-04-24T10:33:31;8.9;;;4.5;;
58306;SDS011;44116;50.884;4.768;2023-04-24T10:35:31;10.4;;;4.9;;
58306;SDS011;44116;50.884;4.768;2023-04-24T10:37:35;10.6;;;4.7;;
58306;SDS011;44116;50.884;4.768;2023-04-24T10:39:29;13.1;;;5.2;;
58306;SDS011;44116;50.884;4.768;2023-04-24T10:41:30;11.5;;;4.5;;
58306;SDS011;44116;50.884;4.768;2023-04-24T10:43:29;12.4;;;5.1;;
58306;SDS011;44116;50.884;4.768;2023-04-24T10:45:28;10.1;;;4.5;;
58306;SDS011;44116;50.884;4.768;2023-04-24T10:47:28;10.5;;;4.4;;
58306;SDS011;44116;50.884;4.768;2023-04-24T10:51:45;9.9;;;4.3;;
58306;SDS011;44116;50.884;4.768;2023-04-24T10:53:28;11.0;;;4.1;;
58306;SDS011;44116;50.884;4.768;2023-04-24T10:55:45;9.5;;;4.3;;
58306;SDS011;44116;50.884;4.768;2023-04-24T10:57:27;10.0;;;4.4;;
58306;SDS011;44116;50.884;4.768;2023-04-24T10:59:27;10.4;;;4.5;;
58306;SDS011;44116;50.884;4.768;2023-04-24T11:01:28;8.6;;;4.1;;
58306;SDS011;44116;50.884;4.768;2023-04-24T11:03:27;11.3;;;4.6;;
58306;SDS011;44116;50.884;4.768;2023-04-24T11:09:27;10.3;;;4.4;;
58306;SDS011;44116;50.884;4.768;2023-04-24T11:11:28;9.1;;;4.1;;
58306;SDS011;44116;50.884;4.768;2023-04-24T11:13:25;11.8;;;4.5;;
58306;SDS011;44116;50.884;4.768;2023-04-24T11:15:24;7.9;;;4.0;;
58306;SDS011;44116;50.884;4.768;2023-04-24T11:17:29;9.9;;;4.3;;
58306;SDS011;44116;50.884;4.768;2023-04-24T11:21:23;10.5;;;4.2;;
58306;SDS011;44116;50.884;4.768;2023-04-24T11:23:23;8.5;;;4.7;;
58306;SDS011;44116;50.884;4.768;2023-04-24T11:25:23;13.1;;;4.9;;
58306;SDS011;44116;50.884;4.768;2023-04-24T11:27:22;11.3;;;5.0;;
58306;SDS011;44116;50.884;4.768;2023-04-24T11:29:23;9.7;;;4.9;;
58306;SDS011;44116;50.884;4.768;2023-04-24T11:31:35;8.9;;;4.6;;
58306;SDS011;44116;50.884;4.768;2023-04-24T11:33:21;10.4;;;5.1;;
58306;SDS011;44116;50.884;4.768;2023-04-24T11:35:22;11.3;;;4.8;;
58306;SDS011;44116;50.884;4.768;2023-04-24T11:37:22;8.9;;;4.7;;
58306;SDS011;44116;50.884;4.768;2023-04-24T11:39:20;11.1;;;4.9;;
58306;SDS011;44116;50.884;4.768;2023-04-24T11:41:20;10.1;;;5.1;;
58306;SDS011;44116;50.884;4.768;2023-04-24T11:43:20;12.4;;;4.8;;
58306;SDS011;44116;50.884;4.768;2023-04-24T11:45:22;10.2;;;4.7;;
58306;SDS011;44116;50.884;4.768;2023-04-24T11:47:19;9.5;;;4.8;;
58306;SDS011;44116;50.884;4.768;2023-04-24T11:49:19;8.9;;;4.6;;
58306;SDS011;44116;50.884;4.768;2023-04-24T11:51:18;10.2;;;4.7;;
58306;SDS011;44116;50.884;4.768;2023-04-24T11:55:27;9.8;;;4.6;;
58306;SDS011;44116;50.884;4.768;2023-04-24T11:57:19;8.6;;;4.5;;
58306;SDS011;44116;50.884;4.768;2023-04-24T11:59:17;10.7;;;4.8;;
58306;SDS011;44116;50.884;4.768;2023-04-24T12:01:17;10.0;;;4.5;;
58306;SDS011;44116;50.884;4.768;2023-04-24T12:03:17;11.4;;;5.0;;
58306;SDS011;44116;50.884;4.768;2023-04-24T12:05:19;10.6;;;5.8;;
58306;SDS011;44116;50.884;4.768;2023-04-24T12:07:16;10.8;;;5.1;;
58306;SDS011;44116;50.884;4.768;2023-04-24T12:09:16;7.6;;;4.7;;
58306;SDS011;44116;50.884;4.768;2023-04-24T12:11:16;11.5;;;5.4;;
58306;SDS011;44116;50.884;4.768;2023-04-24T12:13:15;10.6;;;5.3;;
58306;SDS011;44116;50.884;4.768;2023-04-24T12:15:15;8.7;;;4.6;;
58306;SDS011;44116;50.884;4.768;2023-04-24T12:17:15;9.4;;;5.0;;
58306;SDS011;44116;50.884;4.768;2023-04-24T12:19:18;8.0;;;4.5;;
58306;SDS011;44116;50.884;4.768;2023-04-24T12:21:14;9.7;;;4.4;;
58306;SDS011;44116;50.884;4.768;2023-04-24T12:23:14;9.6;;;4.9;;
58306;SDS011;44116;50.884;4.768;2023-04-24T12:25:14;10.6;;;5.0;;
58306;SDS011;44116;50.884;4.768;2023-04-24T12:27:20;11.2;;;5.6;;
58306;SDS011;44116;50.884;4.768;2023-04-24T12:29:19;11.7;;;5.4;;
58306;SDS011;44116;50.884;4.768;2023-04-24T12:31:13;8.1;;;4.6;;
58306;SDS011;44116;50.884;4.768;2023-04-24T12:33:12;10.7;;;5.3;;
58306;SDS011;44116;50.884;4.768;2023-04-24T12:35:12;7.7;;;4.7;;
58306;SDS011;44116;50.884;4.768;2023-04-24T12:37:12;8.9;;;4.9;;
58306;SDS011;44116;50.884;4.768;2023-04-24T12:39:14;8.9;;;4.4;;
58306;SDS011;44116;50.884;4.768;2023-04-24T12:41:13;9.3;;;4.9;;
58306;SDS011;44116;50.884;4.768;2023-04-24T12:43:14;9.7;;;5.5;;
58306;SDS011;44116;50.884;4.768;2023-04-24T12:45:11;8.8;;;5.3;;
58306;SDS011;44116;50.884;4.768;2023-04-24T12:47:10;12.0;;;5.6;;
58306;SDS011;44116;50.884;4.768;2023-04-24T12:49:10;9.6;;;4.9;;
58306;SDS011;44116;50.884;4.768;2023-04-24T12:51:10;10.4;;;5.1;;
58306;SDS011;44116;50.884;4.768;2023-04-24T12:53:10;8.1;;;4.6;;
58306;SDS011;44116;50.884;4.768;2023-04-24T12:55:09;9.2;;;4.1;;
58306;SDS011;44116;50.884;4.768;2023-04-24T12:57:09;8.4;;;4.5;;
58306;SDS011;44116;50.884;4.768;2023-04-24T12:59:09;11.1;;;5.4;;
58306;SDS011;44116;50.884;4.768;2023-04-24T13:01:09;9.3;;;5.3;;
58306;SDS011;44116;50.884;4.768;2023-04-24T13:03:08;10.9;;;5.1;;
58306;SDS011;44116;50.884;4.768;2023-04-24T13:07:08;8.1;;;4.8;;
58306;SDS011;44116;50.884;4.768;2023-04-24T13:09:07;10.8;;;5.2;;
58306;SDS011;44116;50.884;4.768;2023-04-24T13:11:07;9.5;;;5.3;;
58306;SDS011;44116;50.884;4.768;2023-04-24T13:13:07;11.3;;;6.1;;
58306;SDS011;44116;50.884;4.768;2023-04-24T13:15:07;8.8;;;4.6;;
58306;SDS011;44116;50.884;4.768;2023-04-24T13:17:07;8.6;;;4.5;;